Richboro, PA (18954)

4:25 AM EST on January 27, 2015 (GMT -0500)
KPARICHB3 | Change Station
CLOSE
Current Station
Personal Weather Station
Location: Richboro, PA
Elevation: 358 ft
Nearby Weather Stations
Active Advisory: Winter Weather Advisory Active Notice: Public Information Statement

Elev 358 ft 40.22 °N, 75.01 °W | Updated 19 seconds ago

Snow
Snow
22.3 °F
Feels Like 15 °F
N
5.4
Wind Variable Wind from NW
Gusts 7.6 mph

Today
High -- | Low -- °F
--% Chance of Precip.
Yesterday
High -- | Low -- °F
Precip. -- in
7:13 AM 5:12 PM
First Quarter, 52% visible
Pressure 29.72 in
Visibility 1.8 miles
Clouds Overcast 2000 ft
Windchill 15 °F
Dew Point 19 °F
Humidity 82%
Rainfall 0.00 in
Snow Depth Not available.
UV 0 out of 12
Pollen .10 out of 12
Air Quality Not available.
Flu Activity Not available.
METAR KDYL 270854Z AUTO 36011G16KT 1 3/4SM -SN BR OVC020 M06/M07 A2969 RMK AO2 SLP064 P0000 60000 T10561067 50003

More Conditions Fewer Conditions

Pressure 29.72 in
Visibility 1.8 miles
Clouds Overcast 2000 ft
Windchill 15 °F
Dew Point 19 °F
Humidity 82%
Rainfall 0.00 in
Snow Depth Not available.
UV 0 out of 12
Pollen .10 out of 12
Air Quality Not available.
Flu Activity Not available.
METAR KDYL 270854Z AUTO 36011G16KT 1 3/4SM -SN BR OVC020 M06/M07 A2969 RMK AO2 SLP064 P0000 60000 T10561067 50003

More Conditions Fewer Conditions

10-Day Weather Forecast

Almanac

Astronomy

Jan. 27, 2015 Rise Set
Actual Time
Civil Twilight
Nautical Twilight
Astronomical Twilight
Moon
Length of Visible Light
Length of Day
Tomorrow will be .
, % of the Moon is Illuminated

Today's Extremes

State Highs State Lows

Community

WunderPhotos

Upload Photos

1,790,555 photos uploaded!

WunderBlogs® & News

Nearby

Air Quality

  Air Quality AQ Index Pollutant
Not available.

Snow Depth

Station Depth Elevation

Earthquake Activity

City Distance Mag. Time & Date
Minimum magnitude displayed is 2.5.

Coastal Water Temperatures

Place Temperature

Nearby Weather Stations